Time;durP1;ratioP1;P1;durP2;ratioP2;P2;SDS_P1;SDS_P2;PMS_P1;PMS_P2;Temp;Humidity;BMP_temperature;BMP_pressure;BME280_temperature;BME280_humidity;BME280_pressure;Samples;Min_cycle;Max_cycle;Signal;HPM_P1;HPM_P2
2022/07/02 09:39:30;;;;;;;2.40;1.23;;;;;;;;;;5151009;27;20609;-75
2022/07/02 09:41:57;;;;;;;2.10;1.20;;;;;;;;;;5149667;27;20475;-76
2022/07/02 09:44:26;;;;;;;3.67;1.20;;;;;;;;;;5149188;27;20947;-75
2022/07/02 09:46:53;;;;;;;1.53;1.30;;;;;;;;;;5130397;28;20442;-75
2022/07/02 09:49:20;;;;;;;2.37;1.17;;;;;;;;;;5129611;28;20496;-76
2022/07/02 09:51:49;;;;;;;1.60;1.23;;;;;;;;;;5131871;28;20442;-77
2022/07/02 09:54:20;;;;;;;1.50;1.17;;;;;;;;;;5131805;27;20446;-75
2022/07/02 09:56:53;;;;;;;1.50;1.10;;;;;;;;;;5134069;27;20456;-77
2022/07/02 09:59:20;;;;;;;2.23;1.20;;;;;;;;;;5133826;27;20476;-76
2022/07/02 10:01:48;;;;;;;1.73;0.90;;;;;;;;;;5128714;28;20444;-77
2022/07/02 10:04:15;;;;;;;1.20;1.00;;;;;;;;;;5127417;28;20450;-75
2022/07/02 10:06:43;;;;;;;2.50;1.10;;;;;;;;;;5129459;28;20462;-75
2022/07/02 10:09:11;;;;;;;1.60;1.20;;;;;;;;;;5128416;28;20807;-75
2022/07/02 10:11:38;;;;;;;2.27;1.07;;;;;;;;;;5129600;27;20532;-74
2022/07/02 10:14:09;;;;;;;1.17;0.90;;;;;;;;;;5130406;28;20434;-75
2022/07/02 10:16:36;;;;;;;3.23;1.23;;;;;;;;;;5131643;27;20450;-75
2022/07/02 10:19:04;;;;;;;2.27;0.97;;;;;;;;;;5135110;27;20543;-74
2022/07/02 10:21:32;;;;;;;2.70;1.17;;;;;;;;;;5137880;27;20428;-76
2022/07/02 10:23:59;;;;;;;1.77;1.07;;;;;;;;;;5149003;27;20832;-75
2022/07/02 10:26:27;;;;;;;1.43;1.00;;;;;;;;;;5148961;27;20492;-75
2022/07/02 10:28:55;;;;;;;2.13;1.33;;;;;;;;;;5150051;27;20976;-76
2022/07/02 10:31:23;;;;;;;1.63;1.13;;;;;;;;;;5150065;27;20441;-75
2022/07/02 10:33:55;;;;;;;2.33;1.20;;;;;;;;;;5142618;27;20436;-74
2022/07/02 10:36:23;;;;;;;2.47;1.00;;;;;;;;;;5130973;27;20461;-75
2022/07/02 10:38:57;;;;;;;2.17;1.00;;;;;;;;;;5129414;27;20485;-75
2022/07/02 10:41:26;;;;;;;1.43;1.20;;;;;;;;;;5134748;27;20429;-74
2022/07/02 10:43:55;;;;;;;1.83;1.03;;;;;;;;;;5137712;27;20797;-74
2022/07/02 10:46:25;;;;;;;2.40;1.10;;;;;;;;;;5147296;27;20972;-76
2022/07/02 10:48:53;;;;;;;1.67;1.20;;;;;;;;;;5145601;27;20446;-75
2022/07/02 10:51:21;;;;;;;1.97;1.20;;;;;;;;;;5135830;27;20793;-76
2022/07/02 10:53:50;;;;;;;2.70;1.00;;;;;;;;;;5135795;27;20477;-75
2022/07/02 10:56:17;;;;;;;2.43;1.17;;;;;;;;;;5127688;27;20474;-74
2022/07/02 10:58:44;;;;;;;2.03;1.00;;;;;;;;;;5116856;28;20568;-74
2022/07/02 11:01:12;;;;;;;1.70;1.10;;;;;;;;;;5116756;27;20865;-74
2022/07/02 11:03:51;;;;;;;3.90;1.30;;;;;;;;;;5120819;27;20444;-72
2022/07/02 11:06:21;;;;;;;1.17;1.03;;;;;;;;;;5123683;27;20456;-76
2022/07/02 11:08:49;;;;;;;2.47;1.30;;;;;;;;;;5134497;27;20456;-74
2022/07/02 11:11:21;;;;;;;1.27;0.97;;;;;;;;;;5133164;27;20433;-75
2022/07/02 11:13:49;;;;;;;2.90;1.27;;;;;;;;;;5135085;27;20434;-73
2022/07/02 11:16:20;;;;;;;2.20;1.03;;;;;;;;;;5135469;27;20957;-74
2022/07/02 11:18:49;;;;;;;3.30;1.13;;;;;;;;;;5121320;27;20486;-75
2022/07/02 11:21:16;;;;;;;2.10;1.13;;;;;;;;;;5095026;28;20427;-75
2022/07/02 11:23:44;;;;;;;1.30;1.07;;;;;;;;;;5101595;27;20438;-75
2022/07/02 11:26:11;;;;;;;1.93;0.97;;;;;;;;;;5119959;27;20512;-75
2022/07/02 11:28:39;;;;;;;3.67;1.30;;;;;;;;;;5117830;27;20524;-75
2022/07/02 11:31:06;;;;;;;1.30;1.20;;;;;;;;;;5114027;28;20490;-74
2022/07/02 11:33:33;;;;;;;1.53;1.00;;;;;;;;;;5113365;28;20453;-76
2022/07/02 11:36:02;;;;;;;1.30;1.10;;;;;;;;;;5113965;28;20541;-74
2022/07/02 11:38:37;;;;;;;2.07;1.07;;;;;;;;;;5114328;28;20914;-76
2022/07/02 11:41:04;;;;;;;1.10;1.00;;;;;;;;;;5109410;28;20454;-76
2022/07/02 11:43:32;;;;;;;2.27;1.20;;;;;;;;;;5095688;28;20799;-76
2022/07/02 11:45:59;;;;;;;1.77;1.40;;;;;;;;;;5101775;27;20892;-77
2022/07/02 11:48:27;;;;;;;2.53;1.00;;;;;;;;;;5119793;27;20798;-75
2022/07/02 11:50:57;;;;;;;2.17;1.10;;;;;;;;;;5117483;27;20434;-76
2022/07/02 11:53:26;;;;;;;3.73;1.10;;;;;;;;;;5112094;28;20442;-74
2022/07/02 11:55:54;;;;;;;2.90;1.10;;;;;;;;;;5112876;28;20464;-75
2022/07/02 11:58:21;;;;;;;2.17;1.27;;;;;;;;;;5113460;28;20482;-74
2022/07/02 12:00:48;;;;;;;2.17;1.10;;;;;;;;;;5113130;28;20538;-76
2022/07/02 12:03:15;;;;;;;2.17;1.17;;;;;;;;;;5113764;28;20878;-75
2022/07/02 12:05:51;;;;;;;1.37;1.10;;;;;;;;;;5115349;28;20569;-75
2022/07/02 12:08:18;;;;;;;1.30;1.10;;;;;;;;;;5115162;27;20906;-75
2022/07/02 12:10:47;;;;;;;1.30;1.00;;;;;;;;;;5119335;27;20431;-74
2022/07/02 12:13:14;;;;;;;5.53;1.20;;;;;;;;;;5116941;27;20438;-75
2022/07/02 12:15:43;;;;;;;1.60;1.27;;;;;;;;;;5112958;28;20461;-74
2022/07/02 12:18:16;;;;;;;1.33;1.20;;;;;;;;;;5112378;28;20481;-76
2022/07/02 12:20:44;;;;;;;2.57;1.20;;;;;;;;;;5113382;28;20480;-77
2022/07/02 12:23:11;;;;;;;2.63;1.20;;;;;;;;;;5113517;28;20928;-77
2022/07/02 12:25:43;;;;;;;2.67;1.20;;;;;;;;;;5113735;28;20476;-76
2022/07/02 12:30:54;;;;;;;1.53;1.00;;;;;;;;;;5115028;27;20430;-76
2022/07/02 12:33:31;;;;;;;2.40;1.23;;;;;;;;;;5118914;27;20435;-76
2022/07/02 12:36:00;;;;;;;1.80;1.30;;;;;;;;;;5125810;27;20457;-77
2022/07/02 12:38:27;;;;;;;3.03;1.40;;;;;;;;;;5133088;27;20488;-77
2022/07/02 12:40:59;;;;;;;1.73;1.10;;;;;;;;;;5132548;27;20858;-79
2022/07/02 12:43:27;;;;;;;2.10;1.30;;;;;;;;;;5133137;27;20874;-76
2022/07/02 12:46:05;;;;;;;1.53;1.40;;;;;;;;;;5132446;27;20493;-77
2022/07/02 12:48:32;;;;;;;1.93;1.00;;;;;;;;;;5117952;27;20449;-77
2022/07/02 12:51:10;;;;;;;2.33;1.23;;;;;;;;;;5114652;28;20517;-76
2022/07/02 12:53:37;;;;;;;2.73;1.20;;;;;;;;;;5115590;27;20987;-75
2022/07/02 12:56:06;;;;;;;1.83;1.10;;;;;;;;;;5118472;27;20540;-74
2022/07/02 12:58:34;;;;;;;1.93;1.10;;;;;;;;;;5128581;27;20538;-75
2022/07/02 13:01:02;;;;;;;2.00;1.20;;;;;;;;;;5132859;27;20442;-75
2022/07/02 13:03:30;;;;;;;1.43;1.13;;;;;;;;;;5132358;27;20441;-74
2022/07/02 13:05:58;;;;;;;3.00;1.10;;;;;;;;;;5131841;27;21001;-73
2022/07/02 13:08:26;;;;;;;1.57;1.10;;;;;;;;;;5131587;27;20445;-74
2022/07/02 13:10:55;;;;;;;1.80;1.17;;;;;;;;;;5110714;28;20455;-74
2022/07/02 13:13:23;;;;;;;1.60;1.33;;;;;;;;;;5093850;28;20435;-74
2022/07/02 13:15:52;;;;;;;2.67;1.20;;;;;;;;;;5109531;27;20484;-75
2022/07/02 13:18:19;;;;;;;3.33;1.13;;;;;;;;;;5118433;27;20517;-74
2022/07/02 13:20:47;;;;;;;1.30;1.20;;;;;;;;;;5128869;27;20513;-74
2022/07/02 13:23:14;;;;;;;2.03;1.20;;;;;;;;;;5131412;27;20840;-74
2022/07/02 13:25:41;;;;;;;1.20;1.10;;;;;;;;;;5132039;27;20471;-77
2022/07/02 13:28:09;;;;;;;1.83;1.00;;;;;;;;;;5133087;27;20438;-76
2022/07/02 13:30:36;;;;;;;1.87;1.30;;;;;;;;;;5132607;27;20530;-76
2022/07/02 13:33:04;;;;;;;2.03;1.37;;;;;;;;;;5114343;27;20537;-76
2022/07/02 13:35:32;;;;;;;1.80;0.90;;;;;;;;;;5113908;28;20458;-74
2022/07/02 13:37:59;;;;;;;2.00;1.40;;;;;;;;;;5116483;28;20428;-74
2022/07/02 13:40:26;;;;;;;2.13;1.50;;;;;;;;;;5118017;28;21180;-76
2022/07/02 13:42:53;;;;;;;3.73;1.20;;;;;;;;;;5112796;28;20437;-75
2022/07/02 13:45:21;;;;;;;2.23;1.30;;;;;;;;;;5111511;28;20472;-76
2022/07/02 13:47:48;;;;;;;1.50;1.20;;;;;;;;;;5111255;28;20529;-76
2022/07/02 13:53:12;;;;;;;1.30;1.00;;;;;;;;;;5109316;28;20857;-75
2022/07/02 13:55:39;;;;;;;2.10;1.20;;;;;;;;;;5114703;28;20644;-76
2022/07/02 13:58:07;;;;;;;5.07;1.20;;;;;;;;;;5115077;28;20525;-75
2022/07/02 14:00:34;;;;;;;1.37;1.10;;;;;;;;;;5124242;27;20480;-75
2022/07/02 14:03:01;;;;;;;1.43;1.10;;;;;;;;;;5132214;27;20437;-75
2022/07/02 14:05:28;;;;;;;1.57;1.20;;;;;;;;;;5131484;27;20467;-75
2022/07/02 14:07:55;;;;;;;3.13;1.50;;;;;;;;;;5129698;27;21020;-76
2022/07/02 14:10:24;;;;;;;2.20;1.33;;;;;;;;;;5128747;27;20808;-75
2022/07/02 14:12:51;;;;;;;1.77;1.10;;;;;;;;;;5114768;27;20442;-76
2022/07/02 14:15:18;;;;;;;1.97;1.40;;;;;;;;;;5113303;28;20830;-74
2022/07/02 14:17:45;;;;;;;2.50;1.20;;;;;;;;;;5114278;28;20529;-74
2022/07/02 14:20:13;;;;;;;2.17;1.10;;;;;;;;;;5127168;27;20483;-74
2022/07/02 14:22:40;;;;;;;5.57;1.30;;;;;;;;;;5127795;27;20804;-74
2022/07/02 14:25:08;;;;;;;2.03;1.00;;;;;;;;;;5130412;27;20461;-75
2022/07/02 14:27:36;;;;;;;1.97;1.10;;;;;;;;;;5132792;27;20787;-75
2022/07/02 14:30:03;;;;;;;2.10;1.30;;;;;;;;;;5129967;27;21256;-75
2022/07/02 14:32:31;;;;;;;1.30;1.17;;;;;;;;;;5113513;28;20442;-76
2022/07/02 14:34:58;;;;;;;1.30;1.00;;;;;;;;;;5113521;28;20458;-75
2022/07/02 14:37:27;;;;;;;1.23;0.93;;;;;;;;;;5116888;27;20445;-75
2022/07/02 14:39:55;;;;;;;3.33;1.23;;;;;;;;;;5117107;27;20871;-74
2022/07/02 14:42:22;;;;;;;2.37;1.30;;;;;;;;;;5111523;27;20438;-74
2022/07/02 14:44:50;;;;;;;1.90;1.20;;;;;;;;;;5110814;28;20477;-75
2022/07/02 14:47:17;;;;;;;3.90;1.20;;;;;;;;;;5111608;28;20449;-74
2022/07/02 14:49:45;;;;;;;2.80;1.10;;;;;;;;;;5112298;28;20442;-75
2022/07/02 14:52:12;;;;;;;1.40;1.30;;;;;;;;;;5110972;28;20534;-75
2022/07/02 14:54:39;;;;;;;1.47;1.20;;;;;;;;;;5112925;28;20887;-74
2022/07/02 14:57:06;;;;;;;1.40;1.23;;;;;;;;;;5112811;28;20965;-75
2022/07/02 14:59:34;;;;;;;1.67;1.20;;;;;;;;;;5116585;27;20479;-74
2022/07/02 15:02:03;;;;;;;1.70;1.20;;;;;;;;;;5117151;27;20486;-74
2022/07/02 15:04:30;;;;;;;1.20;1.00;;;;;;;;;;5090321;28;20465;-75
2022/07/02 15:06:57;;;;;;;1.57;1.30;;;;;;;;;;5089834;28;20435;-74
2022/07/02 15:09:25;;;;;;;1.80;0.97;;;;;;;;;;5090148;28;20444;-81
2022/07/02 15:11:52;;;;;;;1.40;1.17;;;;;;;;;;5091078;28;20474;-79
2022/07/02 15:17:02;;;;;;;1.40;1.10;;;;;;;;;;5112378;28;20431;-82
2022/07/02 15:19:30;;;;;;;1.77;1.17;;;;;;;;;;5112240;28;20484;-76
2022/07/02 15:21:59;;;;;;;2.23;1.20;;;;;;;;;;5116555;27;20939;-77
2022/07/02 15:24:28;;;;;;;3.00;1.20;;;;;;;;;;5116297;27;20434;-76
2022/07/02 15:27:05;;;;;;;2.90;1.20;;;;;;;;;;5110443;27;20541;-76
2022/07/02 15:29:32;;;;;;;2.00;1.20;;;;;;;;;;5109855;28;20446;-75
2022/07/02 15:31:59;;;;;;;3.07;1.40;;;;;;;;;;5110070;28;20430;-76
2022/07/02 15:34:27;;;;;;;1.70;1.40;;;;;;;;;;5111193;28;20435;-75
2022/07/02 15:36:56;;;;;;;3.03;1.20;;;;;;;;;;5110400;28;20453;-76
2022/07/02 15:39:24;;;;;;;2.97;1.30;;;;;;;;;;5111992;28;20981;-76
2022/07/02 15:41:51;;;;;;;3.47;1.40;;;;;;;;;;5112307;28;20453;-76
2022/07/02 15:44:18;;;;;;;1.77;1.30;;;;;;;;;;5115445;27;20448;-77
2022/07/02 15:46:47;;;;;;;1.90;1.10;;;;;;;;;;5115873;27;20465;-76
2022/07/02 15:49:14;;;;;;;1.57;1.20;;;;;;;;;;5108530;28;20450;-78
2022/07/02 15:51:43;;;;;;;1.53;1.43;;;;;;;;;;5109445;28;20953;-79
2022/07/02 15:54:14;;;;;;;1.50;1.30;;;;;;;;;;5110146;28;20563;-77
2022/07/02 15:56:42;;;;;;;1.80;1.03;;;;;;;;;;5110005;28;20459;-78
2022/07/02 15:59:10;;;;;;;1.57;1.13;;;;;;;;;;5109867;28;20467;-78
2022/07/02 16:01:38;;;;;;;1.80;1.10;;;;;;;;;;5112169;28;20434;-78
2022/07/02 16:04:05;;;;;;;1.30;1.20;;;;;;;;;;5111968;27;20520;-76
2022/07/02 16:06:33;;;;;;;1.30;1.00;;;;;;;;;;5115872;27;20450;-78
2022/07/02 16:09:02;;;;;;;3.10;1.20;;;;;;;;;;5117372;27;20799;-78
2022/07/02 16:11:31;;;;;;;2.13;1.20;;;;;;;;;;5128612;27;20429;-78
2022/07/02 16:13:59;;;;;;;3.47;1.20;;;;;;;;;;5129551;27;20883;-78
2022/07/02 16:16:27;;;;;;;1.83;1.50;;;;;;;;;;5126376;27;20458;-77
2022/07/02 16:18:54;;;;;;;3.10;1.30;;;;;;;;;;5126602;27;20809;-76
2022/07/02 16:21:22;;;;;;;3.17;1.30;;;;;;;;;;5123404;27;20496;-78
2022/07/02 16:23:49;;;;;;;2.57;1.10;;;;;;;;;;5116294;28;20434;-77
2022/07/02 16:26:18;;;;;;;2.80;1.17;;;;;;;;;;5111683;27;20569;-77
2022/07/02 16:28:47;;;;;;;1.77;1.10;;;;;;;;;;5115805;27;20533;-78
2022/07/02 16:31:18;;;;;;;1.43;1.23;;;;;;;;;;5118134;27;20974;-78
2022/07/02 16:33:49;;;;;;;1.40;1.10;;;;;;;;;;5129460;27;20501;-76
2022/07/02 16:36:22;;;;;;;1.77;1.13;;;;;;;;;;5129159;27;20461;-77
2022/07/02 16:38:51;;;;;;;1.47;1.00;;;;;;;;;;5129508;27;20476;-76
2022/07/02 16:41:20;;;;;;;1.53;1.10;;;;;;;;;;5130261;27;21000;-76
2022/07/02 16:43:51;;;;;;;2.20;1.20;;;;;;;;;;5120527;27;20495;-75
2022/07/02 16:46:19;;;;;;;1.67;1.10;;;;;;;;;;5111193;28;20549;-76
2022/07/02 16:48:48;;;;;;;2.03;1.60;;;;;;;;;;5111501;27;20470;-76
2022/07/02 16:51:16;;;;;;;1.80;1.40;;;;;;;;;;5114427;27;20445;-75
2022/07/02 16:53:43;;;;;;;2.03;1.30;;;;;;;;;;5119434;27;20433;-75
2022/07/02 16:56:10;;;;;;;1.80;1.47;;;;;;;;;;5129405;27;20464;-76
2022/07/02 16:58:38;;;;;;;1.50;1.30;;;;;;;;;;5129007;27;20532;-75
2022/07/02 17:01:06;;;;;;;2.70;1.30;;;;;;;;;;5128138;27;20487;-75
2022/07/02 17:03:34;;;;;;;3.30;1.20;;;;;;;;;;5129864;27;20442;-75
2022/07/02 17:06:01;;;;;;;2.13;1.20;;;;;;;;;;5118891;27;20462;-75
2022/07/02 17:08:28;;;;;;;1.93;1.33;;;;;;;;;;5110422;28;20442;-76
2022/07/02 17:13:36;;;;;;;1.63;1.23;;;;;;;;;;5113678;27;20512;-75
2022/07/02 17:16:03;;;;;;;2.43;1.20;;;;;;;;;;5111184;27;20442;-74
2022/07/02 17:18:32;;;;;;;2.70;1.10;;;;;;;;;;5108470;28;20449;-75
2022/07/02 17:20:59;;;;;;;2.00;1.60;;;;;;;;;;5106582;28;20482;-75
2022/07/02 17:23:27;;;;;;;3.83;1.20;;;;;;;;;;5109391;28;20545;-74
2022/07/02 17:25:56;;;;;;;2.53;1.40;;;;;;;;;;5110632;28;20454;-75
2022/07/02 17:28:23;;;;;;;2.93;1.40;;;;;;;;;;5110769;28;20450;-80
2022/07/02 17:30:50;;;;;;;1.47;1.37;;;;;;;;;;5115431;27;20438;-79
2022/07/02 17:33:18;;;;;;;1.57;1.20;;;;;;;;;;5118152;27;20429;-78
2022/07/02 17:35:47;;;;;;;4.63;1.50;;;;;;;;;;5111669;28;20454;-78
2022/07/02 17:38:15;;;;;;;2.30;1.90;;;;;;;;;;5110839;28;20967;-77
2022/07/02 17:40:42;;;;;;;2.00;1.50;;;;;;;;;;5111724;28;20990;-82
2022/07/02 17:43:10;;;;;;;3.63;1.60;;;;;;;;;;5112340;28;20521;-79
2022/07/02 17:45:37;;;;;;;1.70;1.50;;;;;;;;;;5111673;28;20544;-78
2022/07/02 17:48:04;;;;;;;2.57;1.77;;;;;;;;;;5114507;28;20446;-81
2022/07/02 17:50:32;;;;;;;1.93;1.43;;;;;;;;;;5114003;28;20554;-74
2022/07/02 17:53:00;;;;;;;3.50;1.83;;;;;;;;;;5116809;28;20441;-74
2022/07/02 17:55:28;;;;;;;2.80;1.70;;;;;;;;;;5117926;27;20456;-75
2022/07/02 17:57:55;;;;;;;3.97;1.50;;;;;;;;;;5111805;27;20439;-76
2022/07/02 18:00:23;;;;;;;8.30;1.67;;;;;;;;;;5113413;28;20482;-79
2022/07/02 18:02:50;;;;;;;2.70;1.60;;;;;;;;;;5116008;28;20533;-74
2022/07/02 18:05:17;;;;;;;2.93;1.70;;;;;;;;;;5116236;28;20462;-75
2022/07/02 18:07:44;;;;;;;2.87;1.83;;;;;;;;;;5115343;28;20442;-74
2022/07/02 18:10:13;;;;;;;2.50;1.27;;;;;;;;;;5117886;28;20863;-74
2022/07/02 18:12:41;;;;;;;3.00;1.50;;;;;;;;;;5117733;28;20449;-74
2022/07/02 18:15:09;;;;;;;1.40;1.30;;;;;;;;;;5120802;27;20459;-73
2022/07/02 18:17:37;;;;;;;1.40;1.30;;;;;;;;;;5121839;27;20433;-74
2022/07/02 18:20:05;;;;;;;1.53;1.33;;;;;;;;;;5131865;27;20477;-73
2022/07/02 18:22:32;;;;;;;2.27;1.37;;;;;;;;;;5135533;27;20437;-74
2022/07/02 18:24:59;;;;;;;2.30;1.40;;;;;;;;;;5135654;27;20453;-74
2022/07/02 18:27:28;;;;;;;2.40;1.40;;;;;;;;;;5136522;27;20918;-74
2022/07/02 18:29:55;;;;;;;1.93;1.60;;;;;;;;;;5134622;27;20437;-74
2022/07/02 18:32:23;;;;;;;2.00;1.63;;;;;;;;;;5116958;27;20588;-74
2022/07/02 18:34:50;;;;;;;1.63;1.47;;;;;;;;;;5117310;28;20541;-74
2022/07/02 18:37:18;;;;;;;2.87;1.80;;;;;;;;;;5119681;27;20453;-74
2022/07/02 18:39:45;;;;;;;1.70;1.60;;;;;;;;;;5120891;27;20467;-74
2022/07/02 18:42:12;;;;;;;2.00;1.50;;;;;;;;;;5131201;27;20436;-74
2022/07/02 18:44:41;;;;;;;2.80;2.30;;;;;;;;;;5135452;27;20448;-74
2022/07/02 18:47:08;;;;;;;2.93;2.67;;;;;;;;;;5134917;27;20444;-73
2022/07/02 18:49:35;;;;;;;2.37;2.17;;;;;;;;;;5135734;27;20437;-74
2022/07/02 18:52:02;;;;;;;2.03;1.80;;;;;;;;;;5135547;27;20438;-73
2022/07/02 18:54:30;;;;;;;2.60;1.87;;;;;;;;;;5118480;27;20470;-74
2022/07/02 18:56:57;;;;;;;2.23;1.60;;;;;;;;;;5117079;28;20463;-75
2022/07/02 18:59:25;;;;;;;5.93;2.00;;;;;;;;;;5118911;27;20431;-73
2022/07/02 19:01:54;;;;;;;2.20;1.60;;;;;;;;;;5120579;27;20511;-74
2022/07/02 19:04:21;;;;;;;2.90;1.60;;;;;;;;;;5129035;27;20437;-74
2022/07/02 19:06:49;;;;;;;2.70;1.70;;;;;;;;;;5135271;27;20913;-75
2022/07/02 19:09:16;;;;;;;2.53;1.70;;;;;;;;;;5134418;27;20441;-74
2022/07/02 19:11:44;;;;;;;2.23;1.60;;;;;;;;;;5134784;27;20449;-76
2022/07/02 19:14:11;;;;;;;2.87;1.53;;;;;;;;;;5135690;27;20441;-78
2022/07/02 19:16:39;;;;;;;2.50;1.73;;;;;;;;;;5120279;27;20904;-77
2022/07/02 19:19:08;;;;;;;2.87;2.57;;;;;;;;;;5115245;28;20438;-77
2022/07/02 19:21:35;;;;;;;4.80;3.97;;;;;;;;;;5118072;27;20478;-79
2022/07/02 19:24:06;;;;;;;4.00;3.40;;;;;;;;;;5120547;27;20753;-74
2022/07/02 19:31:56;;;;;;;3.30;2.23;;;;;;;;;;5113559;28;20442;-76
2022/07/02 19:34:24;;;;;;;2.90;1.57;;;;;;;;;;5114651;28;20482;-75
2022/07/02 19:36:51;;;;;;;3.33;1.93;;;;;;;;;;5113980;28;20446;-77
2022/07/02 19:39:19;;;;;;;2.10;1.47;;;;;;;;;;5115405;28;20834;-74
2022/07/02 19:41:46;;;;;;;2.80;1.27;;;;;;;;;;5116004;28;20475;-76
2022/07/02 19:44:13;;;;;;;1.70;1.53;;;;;;;;;;5118214;27;20438;-76
2022/07/02 19:46:40;;;;;;;3.40;2.03;;;;;;;;;;5119914;27;20454;-74
2022/07/02 19:49:07;;;;;;;4.67;2.00;;;;;;;;;;5115951;27;20438;-75
2022/07/02 19:51:36;;;;;;;1.90;1.70;;;;;;;;;;5113551;28;21007;-76
2022/07/02 19:54:04;;;;;;;2.80;1.80;;;;;;;;;;5112998;28;20534;-77
2022/07/02 19:56:31;;;;;;;6.20;1.50;;;;;;;;;;5113754;28;20446;-77
2022/07/02 19:58:58;;;;;;;2.40;1.60;;;;;;;;;;5112739;28;20469;-74
2022/07/02 20:01:27;;;;;;;4.33;1.73;;;;;;;;;;5114598;28;20478;-75
2022/07/02 20:03:54;;;;;;;1.30;1.20;;;;;;;;;;5115813;28;20477;-75
2022/07/02 20:06:22;;;;;;;6.40;1.40;;;;;;;;;;5116347;27;20458;-76
2022/07/02 20:08:50;;;;;;;2.27;1.60;;;;;;;;;;5119311;27;20444;-76
2022/07/02 20:11:17;;;;;;;1.60;1.33;;;;;;;;;;5127441;27;20444;-75
2022/07/02 20:13:45;;;;;;;3.90;1.43;;;;;;;;;;5132746;27;20451;-74
2022/07/02 20:16:12;;;;;;;2.20;1.37;;;;;;;;;;5133180;27;20458;-76
2022/07/02 20:18:40;;;;;;;7.27;1.80;;;;;;;;;;5134007;27;20434;-76
2022/07/02 20:21:07;;;;;;;2.90;1.50;;;;;;;;;;5134075;27;20823;-75
2022/07/02 20:23:34;;;;;;;2.13;1.50;;;;;;;;;;5118280;27;20462;-78
2022/07/02 20:26:03;;;;;;;3.83;1.60;;;;;;;;;;5114979;28;20992;-78
2022/07/02 20:28:30;;;;;;;3.00;1.47;;;;;;;;;;5117232;27;20441;-75
2022/07/02 20:30:57;;;;;;;1.60;1.50;;;;;;;;;;5118998;27;20791;-75
2022/07/02 20:33:25;;;;;;;2.50;1.63;;;;;;;;;;5115013;27;20422;-74
2022/07/02 20:35:52;;;;;;;2.40;1.30;;;;;;;;;;5112799;28;20558;-73
2022/07/02 20:38:19;;;;;;;5.23;2.20;;;;;;;;;;5111890;28;20461;-74
2022/07/02 20:40:47;;;;;;;4.43;1.70;;;;;;;;;;5112711;28;21012;-74
2022/07/02 20:43:16;;;;;;;2.63;1.40;;;;;;;;;;5113341;28;20927;-73
2022/07/02 20:45:43;;;;;;;3.17;1.90;;;;;;;;;;5113621;28;20458;-76
2022/07/02 20:48:10;;;;;;;3.40;1.77;;;;;;;;;;5114989;28;20438;-74
2022/07/02 20:50:37;;;;;;;2.83;1.80;;;;;;;;;;5116654;27;20962;-75
2022/07/02 20:53:05;;;;;;;4.17;1.50;;;;;;;;;;5118360;27;20972;-74
2022/07/02 20:55:32;;;;;;;2.23;1.70;;;;;;;;;;5125885;27;20548;-74
2022/07/02 20:57:59;;;;;;;2.87;1.70;;;;;;;;;;5133159;27;20436;-73
2022/07/02 21:00:28;;;;;;;3.10;1.73;;;;;;;;;;5132349;27;20438;-74
2022/07/02 21:02:55;;;;;;;4.00;2.23;;;;;;;;;;5133048;27;20495;-75
2022/07/02 21:05:23;;;;;;;6.70;2.13;;;;;;;;;;5133283;27;20968;-74
2022/07/02 21:07:50;;;;;;;4.23;1.50;;;;;;;;;;5114455;27;20482;-76
2022/07/02 21:10:17;;;;;;;2.73;1.60;;;;;;;;;;5094159;28;20522;-74
2022/07/02 21:12:44;;;;;;;2.87;2.20;;;;;;;;;;5103419;27;20434;-74
2022/07/02 21:15:12;;;;;;;3.83;2.00;;;;;;;;;;5117988;27;20451;-74
2022/07/02 21:17:41;;;;;;;2.00;1.30;;;;;;;;;;5124437;27;20442;-75
2022/07/02 21:20:08;;;;;;;3.27;1.70;;;;;;;;;;5132516;27;20814;-75
2022/07/02 21:22:36;;;;;;;1.67;1.40;;;;;;;;;;5132017;27;20481;-74
2022/07/02 21:25:03;;;;;;;3.10;1.60;;;;;;;;;;5132678;27;20453;-75
2022/07/02 21:27:31;;;;;;;2.60;1.80;;;;;;;;;;5133188;27;20452;-76
2022/07/02 21:29:58;;;;;;;5.40;2.17;;;;;;;;;;5120198;27;20869;-75
2022/07/02 21:32:25;;;;;;;1.97;1.60;;;;;;;;;;5114204;28;20805;-74
2022/07/02 21:34:53;;;;;;;4.43;1.90;;;;;;;;;;5114900;27;20450;-75
2022/07/02 21:37:21;;;;;;;2.90;1.70;;;;;;;;;;5118123;27;20461;-73
2022/07/02 21:39:48;;;;;;;3.27;1.60;;;;;;;;;;5114994;27;20549;-75
2022/07/02 21:42:15;;;;;;;3.30;2.00;;;;;;;;;;5111364;28;21062;-75
2022/07/02 21:44:42;;;;;;;2.93;1.70;;;;;;;;;;5110894;28;20445;-73
2022/07/02 21:47:10;;;;;;;5.30;1.70;;;;;;;;;;5111540;28;20438;-75
2022/07/02 21:49:37;;;;;;;4.17;1.90;;;;;;;;;;5112293;28;20434;-73
2022/07/02 21:52:06;;;;;;;2.13;1.70;;;;;;;;;;5112223;28;20480;-74
2022/07/02 21:54:33;;;;;;;2.63;1.87;;;;;;;;;;5117503;28;20438;-75
2022/07/02 21:57:01;;;;;;;4.93;2.20;;;;;;;;;;5118703;28;20438;-74
2022/07/02 21:59:28;;;;;;;5.77;2.03;;;;;;;;;;5131612;27;20460;-75
2022/07/02 22:01:57;;;;;;;3.23;1.90;;;;;;;;;;5131551;27;20576;-73
2022/07/02 22:04:24;;;;;;;3.33;2.03;;;;;;;;;;5132378;27;20434;-74
2022/07/02 22:06:51;;;;;;;2.43;1.83;;;;;;;;;;5132606;27;20984;-72
2022/07/02 22:09:20;;;;;;;2.00;1.80;;;;;;;;;;5127306;27;20452;-75
2022/07/02 22:11:47;;;;;;;3.17;1.80;;;;;;;;;;5113838;28;20961;-75
2022/07/02 22:14:14;;;;;;;5.70;2.27;;;;;;;;;;5113533;28;20434;-75
2022/07/02 22:16:41;;;;;;;3.17;2.17;;;;;;;;;;5117163;27;20446;-74
2022/07/02 22:19:09;;;;;;;2.57;1.97;;;;;;;;;;5118056;27;20437;-76
2022/07/02 22:21:37;;;;;;;3.10;2.13;;;;;;;;;;5109667;28;20556;-75
2022/07/02 22:24:04;;;;;;;2.40;1.90;;;;;;;;;;5110701;28;20439;-73
2022/07/02 22:26:33;;;;;;;4.07;2.40;;;;;;;;;;5111381;28;20465;-74
2022/07/02 22:29:00;;;;;;;4.40;2.27;;;;;;;;;;5111789;28;20431;-74
2022/07/02 22:31:27;;;;;;;2.77;2.13;;;;;;;;;;5111411;28;20465;-74
2022/07/02 22:33:54;;;;;;;5.63;2.47;;;;;;;;;;5113710;28;20871;-74
2022/07/02 22:36:22;;;;;;;2.60;2.17;;;;;;;;;;5113645;28;20502;-75
2022/07/02 22:38:49;;;;;;;2.90;1.80;;;;;;;;;;5116581;28;20467;-73
2022/07/02 22:41:23;;;;;;;2.97;2.00;;;;;;;;;;5116786;28;20518;-74
2022/07/02 22:43:52;;;;;;;4.13;2.13;;;;;;;;;;5131238;28;20444;-74
2022/07/02 22:46:20;;;;;;;2.07;1.77;;;;;;;;;;5133274;27;20541;-72
2022/07/02 22:48:47;;;;;;;3.50;1.97;;;;;;;;;;5134562;27;20437;-74
2022/07/02 22:51:16;;;;;;;4.90;2.10;;;;;;;;;;5136131;27;20440;-74
2022/07/02 22:53:43;;;;;;;2.60;1.70;;;;;;;;;;5130804;27;20453;-75
2022/07/02 22:56:11;;;;;;;4.77;1.70;;;;;;;;;;5115951;28;20450;-74
2022/07/02 22:58:39;;;;;;;5.17;2.40;;;;;;;;;;5116846;28;20943;-74
2022/07/02 23:01:07;;;;;;;2.40;1.50;;;;;;;;;;5118944;27;20515;-74
2022/07/02 23:03:34;;;;;;;2.50;1.70;;;;;;;;;;5120658;27;20937;-74
2022/07/02 23:06:02;;;;;;;2.40;2.00;;;;;;;;;;5114423;27;20456;-74
2022/07/02 23:08:29;;;;;;;4.57;1.80;;;;;;;;;;5113658;28;20430;-73
2022/07/02 23:10:57;;;;;;;2.50;1.80;;;;;;;;;;5114904;28;20438;-73
2022/07/02 23:13:24;;;;;;;2.60;1.87;;;;;;;;;;5115252;28;20438;-74
2022/07/02 23:15:52;;;;;;;4.17;1.77;;;;;;;;;;5114067;28;20465;-73
2022/07/02 23:18:21;;;;;;;2.20;2.00;;;;;;;;;;5116717;28;20919;-74
2022/07/02 23:20:48;;;;;;;2.37;2.10;;;;;;;;;;5116377;28;20468;-73
2022/07/02 23:23:16;;;;;;;2.47;1.80;;;;;;;;;;5119360;27;20486;-75
2022/07/02 23:25:43;;;;;;;3.50;1.77;;;;;;;;;;5120670;27;20449;-74
2022/07/02 23:28:11;;;;;;;3.00;1.97;;;;;;;;;;5114771;27;20441;-74
2022/07/02 23:30:38;;;;;;;2.67;1.93;;;;;;;;;;5113428;28;21002;-75
2022/07/02 23:33:05;;;;;;;5.10;1.80;;;;;;;;;;5114111;28;20439;-74
2022/07/02 23:35:34;;;;;;;2.80;2.00;;;;;;;;;;5114394;28;20494;-75
2022/07/02 23:38:01;;;;;;;2.57;2.37;;;;;;;;;;5113364;28;20453;-73
2022/07/02 23:40:30;;;;;;;3.83;2.03;;;;;;;;;;5116281;28;20437;-75
2022/07/02 23:42:57;;;;;;;2.93;1.87;;;;;;;;;;5116166;28;20519;-74
2022/07/02 23:45:24;;;;;;;2.00;1.80;;;;;;;;;;5119289;27;20536;-73
2022/07/02 23:47:51;;;;;;;3.40;1.77;;;;;;;;;;5119714;27;20438;-73
2022/07/02 23:50:19;;;;;;;2.60;2.30;;;;;;;;;;5131217;27;20860;-74
2022/07/02 23:52:51;;;;;;;2.17;1.77;;;;;;;;;;5134017;27;20433;-75
2022/07/02 23:55:18;;;;;;;2.03;1.60;;;;;;;;;;5133222;27;20969;-73
2022/07/02 23:57:46;;;;;;;2.00;1.80;;;;;;;;;;5134873;27;20437;-74
